If you wish to contribute or participate in the discussions about articles you are invited to join SKYbrary as a registered user

 Actions

Landivisiau Air Base

From SKYbrary Wiki

LFRJ /
Revision as of 20:14, 16 February 2015 by Timo.Kouwenhoven (talk | contribs) (LF Airports CSV import)
(diff) ← Older revision | Latest revision (diff) | Newer revision → (diff)
Airport
ICAO: LFRJ
Summary
Name Landivisiau Air Base
Region Europe
Territory France FR.gif
Location , Bretagne
Serving Landivisiau
Elevation 106.07 m
348 ft
348 ft106.07 m
Type medium airport
Coordinates 48° 31' 48.93" N, 4° 9' 5.91" W
Runways
Designator Length Width Surface ROPS
8/26 2700 m8,858.268 ft
45 m147.638 ft
CON /


METAR
Observation LFRJ 252000Z AUTO 29014G24KT 9999 FEW031/// SCT038/// BKN045/// ///CB 05/02 Q1008 TEMPO 31030G40KT 4000 SHRA
Station Landivisiau
Date/Time 25 February 2020 20:00:00
Wind direction 290°
Wind speed 14 kts
Lowest cloud amount few clouds
Temperature 5°C
Dew point 2°C
Humidity 80%
QNH 1008 hPa
Weather condition n/a